Time;durP1;ratioP1;P1;durP2;ratioP2;P2;SDS_P1;SDS_P2;PMS_P1;PMS_P2;Temp;Humidity;BMP_temperature;BMP_pressure;BME280_temperature;BME280_humidity;BME280_pressure;Samples;Min_cycle;Max_cycle;Signal;HPM_P1;HPM_P2
2022/08/15 00:01:03;;;;;;;2.78;2.25;;;;;;;23.05;61.08;97531.00;4156985;28;20270;-85
2022/08/15 00:03:24;;;;;;;4.22;2.67;;;;;;;23.09;60.93;97540.28;4154578;28;20851;-85
2022/08/15 00:05:46;;;;;;;6.90;3.50;;;;;;;23.12;60.44;97538.78;4177497;28;20199;-85
2022/08/15 00:07:50;;;;;;;9.05;2.20;;;;;;;23.02;60.73;97544.84;4170758;28;20222;-85
2022/08/15 00:09:51;;;;;;;2.78;2.58;;;;;;;22.97;60.71;97542.31;4155319;28;20228;-85
2022/08/15 00:11:57;;;;;;;3.45;2.20;;;;;;;23.14;60.56;97530.84;4173478;28;20210;-86
2022/08/15 00:14:03;;;;;;;2.85;2.65;;;;;;;23.23;59.93;97525.97;4159298;28;20294;-85
2022/08/15 00:16:14;;;;;;;6.93;2.47;;;;;;;23.20;59.89;97529.47;4172140;28;20215;-85
2022/08/15 00:18:23;;;;;;;2.97;1.90;;;;;;;23.21;60.00;97525.50;4157588;28;20200;-84
2022/08/15 00:20:24;;;;;;;3.75;2.67;;;;;;;23.24;59.64;97527.59;4152801;28;20208;-84
2022/08/15 00:22:34;;;;;;;4.13;2.83;;;;;;;23.07;59.94;97530.66;4158870;28;20243;-85
2022/08/15 00:24:36;;;;;;;4.05;2.28;;;;;;;23.22;59.61;97532.69;4174840;28;20234;-84
2022/08/15 00:26:38;;;;;;;5.00;2.55;;;;;;;23.10;59.78;97529.94;4160357;28;20207;-86
2022/08/15 00:28:56;;;;;;;3.97;2.80;;;;;;;23.14;59.76;97530.84;4159574;28;20234;-85
2022/08/15 00:30:59;;;;;;;4.63;2.53;;;;;;;23.20;59.24;97535.03;4159933;28;20215;-86
2022/08/15 00:33:03;;;;;;;2.58;2.00;;;;;;;23.03;59.83;97526.97;4176848;28;20213;-85
2022/08/15 00:35:36;;;;;;;3.80;2.50;;;;;;;23.21;59.28;97525.50;4177472;28;20211;-86
2022/08/15 00:37:39;;;;;;;4.82;2.35;;;;;;;23.32;58.77;97530.25;4175491;28;20558;-85
2022/08/15 00:40:01;;;;;;;3.58;2.70;;;;;;;23.31;58.85;97541.75;4162316;28;20246;-86
2022/08/15 00:42:23;;;;;;;7.18;2.60;;;;;;;23.40;58.51;97542.41;4173750;28;20207;-85
2022/08/15 00:44:40;;;;;;;5.75;2.50;;;;;;;23.32;58.47;97537.78;4175077;28;20723;-86
2022/08/15 00:47:07;;;;;;;2.80;2.03;;;;;;;23.37;57.93;97540.34;4174833;28;20195;-85
2022/08/15 00:49:12;;;;;;;4.22;2.60;;;;;;;23.30;58.02;97540.13;4159516;28;20227;-84
2022/08/15 00:51:26;;;;;;;5.07;2.47;;;;;;;23.36;57.94;97533.13;4153199;28;20266;-86
2022/08/15 00:53:31;;;;;;;8.05;2.05;;;;;;;23.30;57.83;97540.13;4174288;28;20642;-82
2022/08/15 00:55:37;;;;;;;3.38;3.08;;;;;;;23.35;57.81;97542.66;4160462;28;20257;-83
2022/08/15 00:57:43;;;;;;;3.08;2.33;;;;;;;23.29;57.91;97541.28;4173526;28;20991;-85
2022/08/15 01:00:16;;;;;;;2.42;2.22;;;;;;;23.03;58.56;97540.91;4170762;28;20230;-84
2022/08/15 01:02:36;;;;;;;5.20;2.33;;;;;;;23.18;57.96;97542.97;4158016;28;20231;-84
2022/08/15 01:04:39;;;;;;;3.97;2.08;;;;;;;23.14;57.90;97547.59;4169298;28;20670;-85
2022/08/15 01:06:43;;;;;;;3.10;2.05;;;;;;;23.07;58.22;97544.59;4168598;28;20215;-84
2022/08/15 01:08:46;;;;;;;3.30;2.00;;;;;;;22.88;58.79;97547.22;4174902;28;20235;-84
2022/08/15 01:10:52;;;;;;;2.10;1.90;;;;;;;22.86;58.72;97563.50;4167925;28;20207;-84
2022/08/15 01:13:04;;;;;;;5.20;1.92;;;;;;;22.77;59.04;97560.06;4160285;28;20211;-85
2022/08/15 01:15:25;;;;;;;4.35;2.10;;;;;;;22.77;58.64;97546.91;4160154;28;20208;-84
2022/08/15 01:17:43;;;;;;;4.38;1.83;;;;;;;22.94;58.29;97555.00;4161048;28;20192;-84
2022/08/15 01:19:57;;;;;;;2.10;1.60;;;;;;;22.95;58.48;97567.78;4161053;28;21471;-85
2022/08/15 01:22:08;;;;;;;4.35;1.85;;;;;;;22.89;58.66;97560.81;4177565;28;20306;-84
2022/08/15 01:24:42;;;;;;;3.35;1.98;;;;;;;22.87;58.55;97560.38;4180119;28;20207;-85
2022/08/15 01:27:03;;;;;;;3.08;1.92;;;;;;;22.89;58.61;97558.03;4179040;28;20199;-86
2022/08/15 01:29:08;;;;;;;2.75;1.88;;;;;;;22.92;58.41;97550.94;4174946;28;20227;-85
2022/08/15 01:31:13;;;;;;;3.65;2.25;;;;;;;22.89;58.57;97551.63;4192579;28;20240;-86
2022/08/15 01:33:16;;;;;;;4.65;2.25;;;;;;;22.94;58.31;97559.75;4193407;28;20233;-85
2022/08/15 01:35:18;;;;;;;2.25;2.00;;;;;;;22.97;58.19;97559.06;4172763;28;20965;-85
2022/08/15 01:37:22;;;;;;;3.88;2.13;;;;;;;22.91;58.67;97555.69;4175530;28;20211;-85
2022/08/15 01:39:32;;;;;;;3.75;2.05;;;;;;;22.96;58.54;97554.66;4174329;28;20616;-83
2022/08/15 01:41:59;;;;;;;5.90;1.70;;;;;;;22.76;59.16;97558.44;4154569;28;20196;-86
2022/08/15 01:44:13;;;;;;;3.03;1.80;;;;;;;22.65;59.57;97562.84;4175579;28;20291;-86
2022/08/15 01:46:39;;;;;;;4.38;2.20;;;;;;;22.70;59.37;97565.41;4175619;28;20219;-86
2022/08/15 01:48:52;;;;;;;3.67;2.85;;;;;;;22.58;59.89;97563.44;4174310;28;20227;-83
2022/08/15 01:50:58;;;;;;;3.13;2.00;;;;;;;22.59;59.80;97569.84;4171807;28;20199;-86
2022/08/15 01:53:10;;;;;;;3.45;1.80;;;;;;;22.58;59.81;97568.22;4174696;28;20200;-85
2022/08/15 01:55:22;;;;;;;2.28;1.67;;;;;;;22.48;60.37;97557.53;4158097;28;20208;-84
2022/08/15 01:57:24;;;;;;;2.78;2.15;;;;;;;22.50;60.65;97560.78;4169572;28;20257;-87
2022/08/15 01:59:26;;;;;;;2.75;2.42;;;;;;;22.69;60.10;97552.59;4170406;28;20227;-85
2022/08/15 02:01:37;;;;;;;4.10;1.80;;;;;;;22.66;60.50;97553.31;4174048;28;20200;-86
2022/08/15 02:03:47;;;;;;;3.80;2.33;;;;;;;22.65;60.40;97557.28;4173198;28;20288;-85
2022/08/15 02:05:52;;;;;;;4.88;2.42;;;;;;;22.52;60.91;97552.88;4173623;28;20207;-85
2022/08/15 02:07:58;;;;;;;2.08;1.90;;;;;;;22.49;61.26;97559.13;4158116;28;20210;-83
2022/08/15 02:10:19;;;;;;;6.65;2.50;;;;;;;22.48;61.03;97557.53;4162613;28;20250;-85
2022/08/15 02:12:30;;;;;;;2.25;2.15;;;;;;;22.44;61.47;97546.25;4164075;28;20295;-85
2022/08/15 02:14:51;;;;;;;2.22;1.98;;;;;;;22.38;61.60;97552.41;4189031;28;20199;-85
2022/08/15 02:16:53;;;;;;;3.38;2.03;;;;;;;22.34;62.14;97557.88;4172535;28;20278;-84
2022/08/15 02:18:59;;;;;;;3.45;1.90;;;;;;;22.12;62.78;97560.28;4174270;28;20227;-83
2022/08/15 02:21:00;;;;;;;2.83;2.25;;;;;;;22.12;62.82;97565.88;4154825;28;20227;-83
2022/08/15 02:23:03;;;;;;;2.47;2.28;;;;;;;21.93;63.67;97560.03;4159668;28;20208;-83
2022/08/15 02:25:06;;;;;;;4.95;2.38;;;;;;;21.88;64.13;97563.03;4171694;28;20330;-84
2022/08/15 02:27:11;;;;;;;3.72;2.20;;;;;;;21.89;64.19;97557.13;4153563;28;20284;-85
2022/08/15 02:29:13;;;;;;;2.33;1.88;;;;;;;21.95;63.89;97563.28;4157222;28;20319;-84
2022/08/15 02:31:18;;;;;;;2.33;2.15;;;;;;;21.91;64.41;97565.16;4157997;28;20197;-85
2022/08/15 02:33:24;;;;;;;4.30;2.15;;;;;;;21.87;64.31;97555.84;4159577;28;20199;-85
2022/08/15 02:35:29;;;;;;;4.78;2.38;;;;;;;21.79;65.03;97554.00;4174623;28;20203;-84
2022/08/15 02:37:30;;;;;;;8.00;2.47;;;;;;;21.98;64.33;97551.47;4174178;28;20311;-84
2022/08/15 02:39:39;;;;;;;3.22;2.30;;;;;;;21.84;64.72;97553.78;4171786;28;20270;-84
2022/08/15 02:41:51;;;;;;;3.25;1.60;;;;;;;21.96;64.54;97550.97;4164906;28;20677;-84
2022/08/15 02:43:55;;;;;;;3.90;2.38;;;;;;;21.83;65.06;97552.16;4185722;28;20175;-84
2022/08/15 02:46:00;;;;;;;5.50;2.47;;;;;;;21.88;64.84;97554.69;4176247;28;20196;-84
2022/08/15 02:48:21;;;;;;;4.25;2.10;;;;;;;21.95;64.99;97563.28;4180469;28;20237;-84
2022/08/15 02:50:28;;;;;;;2.67;2.22;;;;;;;21.85;65.34;97560.97;4175283;28;20212;-84
2022/08/15 02:52:30;;;;;;;4.38;2.30;;;;;;;21.58;66.43;97562.38;4187739;28;20275;-84
2022/08/15 02:54:31;;;;;;;3.58;2.35;;;;;;;21.61;66.92;97560.88;4171782;28;20235;-84
2022/08/15 02:56:38;;;;;;;3.75;2.40;;;;;;;21.65;67.30;97573.75;4184073;28;20230;-85
2022/08/15 02:58:41;;;;;;;4.47;2.17;;;;;;;21.87;66.92;97575.34;4161848;28;20247;-85
2022/08/15 03:00:47;;;;;;;2.78;2.47;;;;;;;21.74;68.07;97565.34;4160590;28;20204;-86
2022/08/15 03:02:50;;;;;;;3.28;2.05;;;;;;;21.41;69.62;97567.31;4160586;28;20196;-84
2022/08/15 03:04:52;;;;;;;3.05;2.45;;;;;;;21.37;70.18;97569.16;4178058;28;20216;-86
2022/08/15 03:06:56;;;;;;;3.53;2.90;;;;;;;20.99;71.69;97572.09;4176656;28;20250;-86
2022/08/15 03:09:04;;;;;;;2.90;2.70;;;;;;;20.99;72.28;97577.66;4178418;28;20301;-84
2022/08/15 03:11:09;;;;;;;4.40;3.28;;;;;;;20.89;72.67;97574.50;4178828;28;20298;-84
2022/08/15 03:13:14;;;;;;;3.42;2.58;;;;;;;20.88;73.27;97581.22;4161928;28;20211;-85
2022/08/15 03:15:16;;;;;;;2.88;2.67;;;;;;;20.91;73.48;97583.31;4162692;28;20311;-84
2022/08/15 03:17:20;;;;;;;3.10;2.88;;;;;;;20.97;73.20;97580.00;4178898;28;20274;-85
2022/08/15 03:19:26;;;;;;;6.00;2.38;;;;;;;20.95;73.77;97576.75;4166041;28;20220;-83
2022/08/15 03:21:28;;;;;;;2.65;2.40;;;;;;;20.97;73.85;97562.50;4181818;28;20210;-84
2022/08/15 03:23:34;;;;;;;2.65;2.42;;;;;;;20.77;75.15;97569.66;4180495;28;20208;-84
2022/08/15 03:25:48;;;;;;;5.18;3.00;;;;;;;20.57;76.35;97555.75;4177442;28;20652;-85
2022/08/15 03:27:57;;;;;;;3.78;2.45;;;;;;;20.89;75.71;97566.13;4175145;28;20208;-84
2022/08/15 03:29:58;;;;;;;3.38;2.55;;;;;;;20.51;77.69;97568.22;4165125;28;20232;-85
2022/08/15 03:32:00;;;;;;;3.53;2.58;;;;;;;20.54;77.64;97564.75;4170216;28;20208;-85
2022/08/15 03:34:02;;;;;;;5.28;3.33;;;;;;;20.39;78.83;97568.13;4172231;28;20635;-84
2022/08/15 03:36:05;;;;;;;10.52;3.13;;;;;;;20.49;78.58;97573.28;4175295;28;20208;-83
2022/08/15 03:38:12;;;;;;;3.08;2.80;;;;;;;20.40;79.27;97569.75;4169963;28;20269;-85
2022/08/15 03:40:15;;;;;;;3.80;3.05;;;;;;;20.07;80.91;97574.34;4189853;28;21291;-84
2022/08/15 03:42:17;;;;;;;10.73;3.15;;;;;;;20.00;81.49;97576.78;4171764;28;20223;-84
2022/08/15 03:44:23;;;;;;;4.47;2.80;;;;;;;20.14;80.80;97585.72;4158895;28;20337;-84
2022/08/15 03:46:27;;;;;;;3.88;3.28;;;;;;;20.27;80.41;97581.91;4172689;28;20204;-85
2022/08/15 03:48:43;;;;;;;3.42;2.58;;;;;;;20.36;80.02;97574.34;4153099;28;20270;-85
2022/08/15 03:50:58;;;;;;;11.82;3.03;;;;;;;20.28;80.30;97583.53;4172089;28;20218;-85
2022/08/15 03:53:03;;;;;;;4.13;2.90;;;;;;;20.31;80.23;97578.13;4179415;28;20696;-84
2022/08/15 03:55:06;;;;;;;3.05;2.65;;;;;;;20.18;80.84;97583.94;4180759;28;20669;-85
2022/08/15 03:57:17;;;;;;;3.13;2.72;;;;;;;20.35;79.80;97592.16;4171910;28;20204;-85
2022/08/15 03:59:22;;;;;;;3.70;3.17;;;;;;;20.19;80.67;97591.13;4167517;28;20676;-84
2022/08/15 04:01:28;;;;;;;2.95;2.17;;;;;;;20.29;80.31;97599.06;4169413;28;20204;-84
2022/08/15 04:03:34;;;;;;;3.55;3.03;;;;;;;20.06;80.79;97592.16;4171513;28;20235;-84
2022/08/15 04:05:36;;;;;;;5.72;2.08;;;;;;;20.25;80.24;97587.00;4159056;28;20253;-84
2022/08/15 04:07:41;;;;;;;4.25;3.70;;;;;;;19.87;82.32;97594.47;4184157;28;20274;-83
2022/08/15 04:09:43;;;;;;;4.47;3.13;;;;;;;19.93;82.97;97593.97;4157998;28;20232;-86
2022/08/15 04:11:45;;;;;;;4.90;4.15;;;;;;;19.88;83.33;97601.66;4163439;28;20630;-85
2022/08/15 04:13:48;;;;;;;4.10;3.70;;;;;;;19.91;83.16;97601.81;4181709;28;20592;-85
2022/08/15 04:15:54;;;;;;;3.30;3.00;;;;;;;19.92;83.53;97597.09;4166312;28;20743;-88
2022/08/15 04:18:16;;;;;;;6.38;3.50;;;;;;;20.08;82.87;97600.97;4165342;28;20539;-85
2022/08/15 04:20:38;;;;;;;4.10;3.13;;;;;;;20.24;82.63;97599.28;4155112;28;20265;-84
2022/08/15 04:22:45;;;;;;;6.63;3.47;;;;;;;20.33;82.02;97597.25;4168303;28;20207;-85
2022/08/15 04:24:59;;;;;;;3.50;2.90;;;;;;;20.17;81.78;97593.41;4156904;28;20562;-85
2022/08/15 04:27:01;;;;;;;4.82;4.20;;;;;;;20.21;82.19;97584.06;4153245;28;20197;-86
2022/08/15 04:29:03;;;;;;;4.35;3.80;;;;;;;20.08;82.43;97587.06;4187290;28;20263;-85
2022/08/15 04:31:12;;;;;;;3.85;3.47;;;;;;;20.04;82.03;97592.44;4171706;28;20233;-86
2022/08/15 04:33:26;;;;;;;4.63;3.53;;;;;;;20.13;81.84;97592.44;4185613;28;20659;-86
2022/08/15 04:35:58;;;;;;;5.07;3.90;;;;;;;20.07;81.61;97589.06;4169060;28;20299;-85
2022/08/15 04:38:00;;;;;;;4.53;4.13;;;;;;;19.95;82.25;97585.28;4133310;28;22064;-85
2022/08/15 04:40:02;;;;;;;5.50;3.42;;;;;;;19.98;81.79;97585.44;4155347;28;20690;-85
2022/08/15 04:42:24;;;;;;;2.83;2.55;;;;;;;20.02;81.70;97580.03;4165930;28;20240;-85
2022/08/15 04:44:26;;;;;;;2.88;2.55;;;;;;;20.22;81.28;97582.09;4152764;28;20298;-85
2022/08/15 04:46:34;;;;;;;5.20;3.60;;;;;;;20.10;81.20;97588.38;4141752;28;20252;-85
2022/08/15 04:48:38;;;;;;;4.43;3.90;;;;;;;20.06;81.29;97586.59;4152083;28;20232;-85
2022/08/15 04:50:44;;;;;;;3.83;3.08;;;;;;;20.06;81.68;97587.41;4136841;28;20722;-85
2022/08/15 04:52:58;;;;;;;3.70;3.20;;;;;;;19.90;82.55;97588.28;4150968;28;20205;-85
2022/08/15 04:55:03;;;;;;;3.30;3.00;;;;;;;20.05;81.54;97590.50;4153123;28;20212;-84
2022/08/15 04:57:06;;;;;;;3.88;3.33;;;;;;;20.05;81.38;97590.50;4157537;28;20209;-85
2022/08/15 04:59:09;;;;;;;3.53;3.10;;;;;;;19.95;81.76;97586.13;4142642;28;20218;-86
2022/08/15 05:01:30;;;;;;;5.32;3.67;;;;;;;19.92;81.89;97591.53;4168058;28;20206;-86
2022/08/15 05:03:52;;;;;;;3.88;3.58;;;;;;;19.80;82.42;97585.84;4146967;28;20668;-85
2022/08/15 05:05:59;;;;;;;3.80;3.28;;;;;;;20.01;81.53;97600.63;4141820;28;20237;-85
2022/08/15 05:08:02;;;;;;;3.45;3.05;;;;;;;19.78;82.56;97594.50;4155530;28;20781;-85
2022/08/15 05:10:09;;;;;;;6.47;4.53;;;;;;;19.84;82.51;97600.72;4153707;28;20330;-85
2022/08/15 05:12:12;;;;;;;3.92;3.58;;;;;;;20.11;81.64;97591.97;4138454;28;20775;-85
2022/08/15 05:14:24;;;;;;;4.35;2.78;;;;;;;19.93;82.20;97595.94;4149526;28;20216;-86
2022/08/15 05:16:46;;;;;;;3.22;3.03;;;;;;;20.15;81.28;97595.69;4149905;28;20284;-86
2022/08/15 05:18:48;;;;;;;4.00;3.60;;;;;;;20.05;81.45;97587.72;4164907;28;20220;-85
2022/08/15 05:20:53;;;;;;;4.50;3.75;;;;;;;19.93;81.84;97582.03;4163758;28;20694;-85
2022/08/15 05:22:57;;;;;;;16.52;4.70;;;;;;;19.95;82.17;97590.84;4175796;28;20623;-86
2022/08/15 05:25:05;;;;;;;3.35;3.13;;;;;;;19.91;81.69;97590.69;4146896;28;20682;-86
2022/08/15 05:27:13;;;;;;;4.45;4.05;;;;;;;19.95;81.84;97590.84;4163156;28;20226;-85
2022/08/15 05:29:20;;;;;;;4.45;3.92;;;;;;;19.77;83.04;97594.84;4164123;28;20311;-85
2022/08/15 05:31:23;;;;;;;4.85;4.35;;;;;;;19.59;83.90;97605.16;4148642;28;20240;-85
2022/08/15 05:33:42;;;;;;;5.10;4.70;;;;;;;19.47;84.41;97604.22;4149827;28;20289;-86
2022/08/15 05:36:02;;;;;;;5.55;5.07;;;;;;;19.59;84.04;97596.03;4143922;28;20213;-85
2022/08/15 05:38:06;;;;;;;4.45;4.05;;;;;;;19.47;84.85;97602.28;4160186;28;20258;-85
2022/08/15 05:40:40;;;;;;;5.43;4.15;;;;;;;19.63;84.15;97599.78;4144675;28;20633;-86
2022/08/15 05:43:18;;;;;;;4.72;4.32;;;;;;;19.48;84.87;97591.97;4177911;28;20197;-86
2022/08/15 05:45:30;;;;;;;5.40;4.90;;;;;;;19.60;84.44;97601.28;4159099;28;20209;-86
2022/08/15 05:48:31;;;;;;;4.25;3.92;;;;;;;19.78;83.58;97596.47;4155548;28;20321;-85
2022/08/15 05:51:18;;;;;;;4.18;3.78;;;;;;;20.00;82.13;97593.44;4154808;28;20240;-86
2022/08/15 05:53:29;;;;;;;4.03;3.65;;;;;;;20.16;81.36;97608.44;4139349;28;20206;-85
2022/08/15 05:55:44;;;;;;;4.78;4.45;;;;;;;20.01;82.52;97607.00;4159785;28;20205;-86
2022/08/15 05:58:13;;;;;;;5.15;4.75;;;;;;;19.82;83.08;97611.31;4154576;28;20185;-85
2022/08/15 06:00:34;;;;;;;5.15;4.65;;;;;;;19.79;83.50;97609.22;4160054;28;20201;-86
2022/08/15 06:02:54;;;;;;;5.57;5.10;;;;;;;19.56;84.57;97605.84;4156406;28;20216;-86
2022/08/15 06:05:03;;;;;;;4.95;4.53;;;;;;;19.62;84.46;97615.63;4144354;28;20213;-85
2022/08/15 06:07:10;;;;;;;5.13;4.72;;;;;;;19.66;84.21;97615.78;4163057;28;20211;-85
2022/08/15 06:09:39;;;;;;;3.95;3.65;;;;;;;19.38;84.98;97614.53;4159122;28;20655;-84
2022/08/15 06:11:46;;;;;;;5.20;4.70;;;;;;;19.56;84.01;97621.66;4157724;28;20216;-85
2022/08/15 06:13:56;;;;;;;4.18;3.75;;;;;;;19.39;84.57;97621.72;4157464;28;20311;-86
2022/08/15 06:16:16;;;;;;;4.97;4.68;;;;;;;19.14;85.89;97619.72;4190149;28;20286;-85
2022/08/15 06:18:37;;;;;;;4.90;4.60;;;;;;;18.89;87.66;97623.31;4150244;28;20209;-85
2022/08/15 06:20:52;;;;;;;4.45;4.05;;;;;;;19.10;86.69;97618.75;4150555;28;20193;-85
2022/08/15 06:23:17;;;;;;;4.47;4.07;;;;;;;19.26;86.25;97622.69;4163313;28;20209;-86
2022/08/15 06:25:40;;;;;;;3.80;3.47;;;;;;;19.51;84.79;97616.31;4142649;28;20244;-85
2022/08/15 06:27:57;;;;;;;7.10;4.63;;;;;;;19.52;84.76;97615.97;4160341;28;20204;-84
2022/08/15 06:30:07;;;;;;;4.00;3.70;;;;;;;19.51;84.40;97608.78;4154023;28;20229;-84
2022/08/15 06:32:32;;;;;;;4.32;4.03;;;;;;;19.36;85.53;97616.78;4147447;28;20702;-85
2022/08/15 06:34:50;;;;;;;4.47;4.07;;;;;;;19.90;83.64;97621.59;4163233;28;20650;-85
2022/08/15 06:37:10;;;;;;;4.65;4.25;;;;;;;20.00;82.90;97621.22;4145020;28;20205;-85
2022/08/15 06:39:30;;;;;;;4.15;3.85;;;;;;;20.06;82.23;97614.38;4156998;28;20243;-85
2022/08/15 06:42:04;;;;;;;5.10;4.70;;;;;;;20.02;82.63;97613.38;4145581;28;20967;-85
2022/08/15 06:44:12;;;;;;;4.43;4.03;;;;;;;20.03;82.17;97624.16;4155190;28;20213;-85
2022/08/15 06:46:21;;;;;;;4.13;3.83;;;;;;;20.13;82.27;97620.22;4159621;28;20295;-84
2022/08/15 06:48:43;;;;;;;5.53;5.03;;;;;;;19.84;83.04;97615.38;4157609;28;20208;-84
2022/08/15 06:51:04;;;;;;;4.72;3.92;;;;;;;20.14;82.09;97622.69;4147604;28;20290;-83
2022/08/15 06:53:21;;;;;;;4.15;3.83;;;;;;;20.18;82.06;97623.63;4159082;28;20255;-85
2022/08/15 06:55:26;;;;;;;4.30;3.88;;;;;;;20.10;82.09;97620.91;4134864;28;20226;-85
2022/08/15 06:57:53;;;;;;;4.57;4.28;;;;;;;19.99;82.69;97620.41;4147978;28;20206;-85
2022/08/15 07:00:17;;;;;;;3.17;2.95;;;;;;;20.10;82.09;97620.91;4157532;28;20274;-86
2022/08/15 07:02:52;;;;;;;4.97;4.57;;;;;;;19.95;82.83;97618.63;4162364;28;20287;-85
2022/08/15 07:05:31;;;;;;;4.63;4.22;;;;;;;20.09;81.99;97624.81;4142924;28;20213;-84
2022/08/15 07:08:04;;;;;;;4.78;4.47;;;;;;;19.99;82.09;97622.38;4158159;28;20209;-85
2022/08/15 07:10:33;;;;;;;6.40;4.72;;;;;;;19.65;83.07;97625.25;4157715;28;20282;-85
2022/08/15 07:12:57;;;;;;;6.53;5.55;;;;;;;19.80;83.08;97633.06;4171046;28;20271;-85
2022/08/15 07:15:25;;;;;;;5.47;5.00;;;;;;;19.67;84.54;97631.28;4136351;28;20201;-85
2022/08/15 07:17:34;;;;;;;5.80;5.30;;;;;;;19.77;84.02;97628.19;4173846;28;20200;-87
2022/08/15 07:19:36;;;;;;;5.60;5.13;;;;;;;19.73;83.42;97628.03;4139377;28;20229;-85
2022/08/15 07:21:39;;;;;;;5.78;5.28;;;;;;;19.81;82.30;97629.94;4147292;28;20589;-86
2022/08/15 07:24:07;;;;;;;6.63;6.22;;;;;;;19.92;83.03;97622.88;4159706;28;20594;-85
2022/08/15 07:26:31;;;;;;;6.53;6.03;;;;;;;19.96;83.22;97625.81;4184203;28;20302;-85
2022/08/15 07:28:52;;;;;;;5.72;5.32;;;;;;;20.11;82.02;97633.66;4172751;28;20625;-85
2022/08/15 07:30:53;;;;;;;7.47;6.82;;;;;;;19.97;82.15;97633.00;4163017;28;20243;-84
2022/08/15 07:32:57;;;;;;;6.93;6.43;;;;;;;19.87;82.17;97628.63;4186219;28;20214;-84
2022/08/15 07:35:13;;;;;;;7.65;7.10;;;;;;;19.93;82.10;97634.81;4157723;28;20238;-83
2022/08/15 07:37:17;;;;;;;8.07;7.53;;;;;;;20.13;81.70;97642.47;4156418;28;20247;-86
2022/08/15 07:39:28;;;;;;;8.30;7.05;;;;;;;20.24;80.76;97638.97;4170877;28;20223;-85
2022/08/15 07:41:39;;;;;;;6.80;6.25;;;;;;;20.21;81.07;97645.19;4169825;28;20681;-85
2022/08/15 07:44:15;;;;;;;7.80;7.30;;;;;;;19.84;83.36;97651.50;4139662;28;20212;-85
2022/08/15 07:46:34;;;;;;;8.35;7.75;;;;;;;20.01;82.80;97643.13;4141461;28;20205;-85
2022/08/15 07:48:40;;;;;;;8.00;7.30;;;;;;;20.04;82.22;97638.88;4168922;28;20206;-85
2022/08/15 07:51:16;;;;;;;7.93;7.28;;;;;;;20.15;81.55;97634.59;4155963;28;20216;-86
2022/08/15 07:53:21;;;;;;;7.65;6.93;;;;;;;20.25;80.70;97634.25;4141279;28;20699;-86
2022/08/15 07:55:23;;;;;;;7.72;7.22;;;;;;;20.24;81.22;97638.16;4155545;28;20239;-85
2022/08/15 07:58:05;;;;;;;7.45;6.85;;;;;;;20.33;81.06;97645.31;4141007;28;20228;-86
2022/08/15 08:00:21;;;;;;;5.85;5.55;;;;;;;20.49;80.20;97651.09;4154252;28;20232;-86
2022/08/15 08:03:02;;;;;;;6.25;5.65;;;;;;;20.61;79.22;97651.22;4154492;28;20213;-85
2022/08/15 08:05:04;;;;;;;5.20;4.82;;;;;;;20.24;80.71;97654.84;4139298;28;21164;-86
2022/08/15 08:07:20;;;;;;;5.95;5.45;;;;;;;20.25;80.31;97662.03;4137466;28;20206;-84
2022/08/15 08:09:43;;;;;;;5.97;5.50;;;;;;;20.21;81.25;97658.28;4154946;28;20257;-85
2022/08/15 08:11:48;;;;;;;4.88;4.57;;;;;;;20.44;81.01;97654.09;4140511;28;20221;-85
2022/08/15 08:14:08;;;;;;;5.15;4.75;;;;;;;20.80;79.45;97646.03;4159231;28;20287;-85
2022/08/15 08:16:40;;;;;;;4.95;4.60;;;;;;;21.07;78.46;97657.50;4154027;28;20212;-84
2022/08/15 08:19:06;;;;;;;4.95;4.65;;;;;;;21.30;78.15;97646.84;4172512;28;20204;-84
2022/08/15 08:21:11;;;;;;;5.72;5.25;;;;;;;21.30;77.46;97644.88;4183853;28;20708;-85
2022/08/15 08:23:26;;;;;;;4.88;4.55;;;;;;;21.44;77.54;97644.59;4148554;28;20223;-85
2022/08/15 08:25:53;;;;;;;5.45;4.93;;;;;;;21.45;76.68;97651.78;4150954;28;20255;-85
2022/08/15 08:28:42;;;;;;;5.07;4.68;;;;;;;21.58;76.55;97653.47;4150266;28;20621;-84
2022/08/15 08:31:05;;;;;;;5.07;4.65;;;;;;;21.56;76.11;97659.38;4160124;28;20314;-84
2022/08/15 08:33:23;;;;;;;5.10;4.60;;;;;;;21.51;76.12;97650.44;4165708;28;20239;-85
2022/08/15 08:35:45;;;;;;;7.00;5.63;;;;;;;21.47;76.50;97660.59;4147619;28;20207;-84
2022/08/15 08:37:54;;;;;;;5.00;4.65;;;;;;;21.50;76.25;97655.16;4154589;28;20242;-84
2022/08/15 08:42:39;;;;;;;5.72;5.13;;;;;;;21.07;77.13;97662.25;4158406;28;20208;-85
2022/08/15 08:45:01;;;;;;;4.47;4.18;;;;;;;21.28;77.15;97651.91;4137000;28;20217;-84
2022/08/15 08:47:32;;;;;;;5.38;4.88;;;;;;;21.26;77.19;97645.88;4155317;28;20295;-84
2022/08/15 08:49:41;;;;;;;6.30;4.68;;;;;;;21.08;77.32;97652.72;4158158;28;20232;-84
2022/08/15 08:52:32;;;;;;;6.00;5.50;;;;;;;21.20;76.72;97652.81;4158868;28;20209;-86
2022/08/15 08:54:58;;;;;;;4.55;4.15;;;;;;;20.99;78.41;97661.13;4162698;28;20295;-83
2022/08/15 08:57:05;;;;;;;18.02;5.07;;;;;;;20.92;78.51;97657.28;4183865;28;20236;-84
2022/08/15 08:59:16;;;;;;;4.95;4.40;;;;;;;20.94;78.43;97657.75;4136389;28;20227;-84
2022/08/15 09:01:24;;;;;;;4.75;4.25;;;;;;;21.15;77.54;97658.56;4150022;28;20290;-85
2022/08/15 09:03:34;;;;;;;5.65;3.90;;;;;;;21.19;77.44;97665.91;4172083;28;20249;-83
2022/08/15 09:05:51;;;;;;;6.03;4.28;;;;;;;21.30;76.34;97666.34;4139381;28;20639;-83
2022/08/15 09:07:58;;;;;;;4.22;3.92;;;;;;;21.24;76.33;97667.69;4185283;28;20207;-84
2022/08/15 09:10:05;;;;;;;5.07;3.97;;;;;;;21.30;76.24;97671.91;4144538;28;20295;-84
2022/08/15 09:14:53;;;;;;;3.92;3.63;;;;;;;21.26;75.20;97679.28;4155626;28;20323;-84
2022/08/15 09:17:08;;;;;;;4.63;3.67;;;;;;;21.19;75.39;97684.59;4155027;28;20216;-84
2022/08/15 09:19:40;;;;;;;4.90;4.45;;;;;;;21.21;75.53;97674.75;4142957;28;20225;-85
2022/08/15 09:21:43;;;;;;;4.18;3.85;;;;;;;21.00;76.80;97684.22;4157579;28;20579;-84
2022/08/15 09:23:45;;;;;;;3.88;3.58;;;;;;;20.81;77.15;97698.53;4155374;28;20209;-84
2022/08/15 09:26:02;;;;;;;4.45;4.15;;;;;;;20.72;78.13;97697.75;4157675;28;20365;-84
2022/08/15 09:28:32;;;;;;;4.65;4.25;;;;;;;20.45;78.83;97695.44;4159348;28;20323;-83
2022/08/15 09:30:39;;;;;;;4.20;3.85;;;;;;;20.69;78.19;97694.84;4171590;28;20227;-83
2022/08/15 09:33:21;;;;;;;4.45;4.05;;;;;;;20.74;78.03;97700.22;4176922;28;20215;-84
2022/08/15 09:35:31;;;;;;;4.60;4.18;;;;;;;21.01;76.93;97705.31;4183890;28;20252;-85
2022/08/15 09:37:58;;;;;;;4.30;4.00;;;;;;;21.10;76.42;97700.53;4154436;28;20216;-85
2022/08/15 09:40:27;;;;;;;4.25;3.95;;;;;;;20.91;76.64;97708.50;4129944;28;20240;-84
2022/08/15 09:43:18;;;;;;;3.58;3.33;;;;;;;21.01;76.61;97713.66;4153652;28;20207;-84
2022/08/15 09:45:38;;;;;;;4.60;4.30;;;;;;;20.97;76.76;97707.16;4149454;28;20213;-84
2022/08/15 09:48:08;;;;;;;4.00;3.70;;;;;;;21.00;76.85;97706.47;4183959;28;20218;-83
2022/08/15 09:50:36;;;;;;;4.43;4.13;;;;;;;21.08;76.73;97697.25;4181221;28;20215;-83
2022/08/15 09:53:22;;;;;;;3.85;3.55;;;;;;;21.32;75.62;97698.22;4150461;28;20274;-85
2022/08/15 09:55:46;;;;;;;4.07;3.67;;;;;;;21.00;76.29;97695.34;4148680;28;20300;-82
2022/08/15 09:57:56;;;;;;;4.00;3.70;;;;;;;21.07;76.57;97685.31;4140303;28;20202;-85
2022/08/15 10:00:00;;;;;;;4.22;3.38;;;;;;;21.22;75.90;97686.66;4155215;28;20259;-84
2022/08/15 10:02:21;;;;;;;3.28;2.97;;;;;;;21.58;75.06;97682.13;4180717;28;20507;-84
2022/08/15 10:04:49;;;;;;;4.97;3.20;;;;;;;21.85;74.16;97686.34;4154962;28;21045;-85
2022/08/15 10:07:11;;;;;;;4.50;3.97;;;;;;;21.92;74.23;97692.97;4185294;28;20222;-84
2022/08/15 10:09:32;;;;;;;3.88;3.58;;;;;;;22.01;73.57;97690.09;4152846;28;20720;-84
2022/08/15 10:11:38;;;;;;;5.00;3.65;;;;;;;22.23;73.00;97684.13;4183493;28;20612;-84
2022/08/15 10:14:15;;;;;;;3.60;3.30;;;;;;;22.62;72.50;97677.91;4152266;28;20209;-85
2022/08/15 10:16:53;;;;;;;3.72;3.42;;;;;;;22.83;70.97;97673.06;4128292;28;20237;-85
2022/08/15 10:18:58;;;;;;;3.60;3.30;;;;;;;23.18;70.35;97668.59;4118625;28;20380;-85
2022/08/15 10:21:20;;;;;;;3.53;3.28;;;;;;;23.39;69.67;97672.03;4135217;28;20207;-85
2022/08/15 10:23:43;;;;;;;4.82;3.22;;;;;;;24.08;66.36;97674.13;4178564;28;20203;-84
2022/08/15 10:26:14;;;;;;;3.22;3.03;;;;;;;24.41;65.71;97677.38;4135299;28;20781;-86
2022/08/15 10:28:36;;;;;;;2.92;2.55;;;;;;;24.77;64.56;97684.75;4166664;28;20211;-86
2022/08/15 10:31:01;;;;;;;3.65;3.05;;;;;;;24.98;63.13;97674.88;4148467;28;20212;-84
2022/08/15 10:33:33;;;;;;;3.42;3.10;;;;;;;24.90;63.14;97667.50;4182405;28;20289;-83
2022/08/15 10:35:45;;;;;;;3.40;3.10;;;;;;;24.95;63.94;97678.41;4165468;28;20207;-84